createdAt,value
2023-05-22T00:04:21.599Z,73.97
2023-05-22T00:09:26.529Z,74.08
2023-05-22T00:14:28.308Z,74.00
2023-05-22T00:19:30.589Z,73.97
2023-05-22T00:24:32.425Z,74.91
2023-05-22T00:29:34.656Z,76.06
2023-05-22T00:34:36.712Z,78.00
2023-05-22T00:39:38.899Z,75.95
2023-05-22T00:44:41.876Z,75.72
2023-05-22T00:49:44.266Z,76.55
2023-05-22T00:54:46.380Z,75.36
2023-05-22T00:59:48.952Z,75.02
2023-05-22T01:04:50.914Z,75.23
2023-05-22T01:09:53.145Z,75.95
2023-05-22T01:15:33.614Z,77.12
2023-05-22T01:20:41.245Z,76.34
2023-05-22T01:26:03.706Z,75.91
2023-05-22T01:31:08.211Z,75.07
2023-05-22T01:36:11.589Z,75.24
2023-05-22T01:41:14.158Z,76.43
2023-05-22T01:46:16.273Z,76.01
2023-05-22T01:51:36.778Z,75.83
2023-05-22T01:57:17.263Z,76.33
2023-05-22T02:02:21.395Z,76.09
2023-05-22T02:07:27.544Z,76.86
2023-05-22T02:12:31.511Z,76.92
2023-05-22T02:17:40.435Z,78.26
2023-05-22T02:22:46.066Z,79.18
2023-05-22T02:27:48.077Z,82.71
2023-05-22T02:32:50.201Z,80.16
2023-05-22T02:37:52.070Z,79.61
2023-05-22T02:42:53.844Z,79.64
2023-05-22T02:47:55.983Z,79.15
2023-05-22T02:52:57.880Z,79.04
2023-05-22T02:57:59.641Z,78.41
2023-05-22T03:03:01.698Z,78.20
2023-05-22T03:08:03.677Z,78.33
2023-05-22T03:13:05.614Z,78.49
2023-05-22T03:18:07.504Z,77.79
2023-05-22T03:23:13.146Z,77.40
2023-05-22T03:28:15.023Z,76.09
2023-05-22T03:33:16.947Z,76.80
2023-05-22T03:38:19.120Z,74.21
2023-05-22T03:43:21.117Z,72.63
2023-05-22T03:48:23.034Z,73.26
2023-05-22T03:53:26.930Z,72.46
2023-05-22T03:58:29.040Z,71.31
2023-05-22T04:03:30.936Z,70.45
2023-05-22T04:08:33.441Z,71.45
2023-05-22T04:13:35.501Z,69.42
2023-05-22T04:18:37.315Z,59.85
2023-05-22T04:23:39.156Z,53.67
2023-05-22T04:28:41.988Z,57.53
2023-05-22T04:33:44.622Z,62.14
2023-05-22T04:38:47.700Z,62.44
2023-05-22T04:43:49.595Z,63.19
2023-05-22T04:48:53.563Z,63.45
2023-05-22T04:53:56.129Z,63.63
2023-05-22T04:58:58.842Z,63.68
2023-05-22T05:04:00.929Z,65.13
2023-05-22T05:09:03.083Z,63.71
2023-05-22T05:14:05.038Z,61.93
2023-05-22T05:19:06.911Z,62.39
2023-05-22T05:24:09.046Z,60.90
2023-05-22T05:29:12.957Z,60.94
2023-05-22T05:34:25.216Z,60.33
2023-05-22T05:39:38.854Z,62.04
2023-05-22T05:44:42.994Z,60.37
2023-05-22T05:49:45.397Z,61.25
2023-05-22T05:54:49.480Z,58.72
2023-05-22T05:59:55.461Z,61.49
2023-05-22T06:05:17.697Z,59.72
2023-05-22T06:10:19.960Z,60.26
2023-05-22T06:15:33.402Z,59.83
2023-05-22T06:20:35.247Z,59.85
2023-05-22T06:25:37.585Z,57.96
2023-05-22T06:30:40.534Z,58.64
2023-05-22T06:35:47.279Z,58.72
2023-05-22T06:40:50.635Z,56.47
2023-05-22T06:45:56.873Z,57.09
2023-05-22T06:51:12.831Z,55.82
2023-05-22T06:56:16.444Z,56.30
2023-05-22T07:01:29.477Z,54.56
2023-05-22T07:06:42.489Z,51.55
2023-05-22T07:11:46.689Z,52.29
2023-05-22T07:16:50.545Z,51.69
2023-05-22T07:22:00.275Z,50.23
2023-05-22T07:27:04.463Z,49.83
2023-05-22T07:32:08.636Z,49.85
2023-05-22T07:37:13.274Z,47.89
2023-05-22T07:42:16.384Z,46.27
2023-05-22T07:47:24.763Z,45.36
2023-05-22T07:52:26.878Z,45.46
2023-05-22T07:57:29.944Z,46.13
2023-05-22T08:02:36.611Z,45.19
2023-05-22T08:07:38.589Z,44.59
2023-05-22T08:12:40.510Z,44.08
2023-05-22T08:17:42.316Z,44.40
2023-05-22T08:22:44.295Z,44.67
2023-05-22T08:27:46.458Z,43.76
2023-05-22T08:32:48.278Z,42.41
2023-05-22T08:37:50.132Z,41.45
2023-05-22T08:42:54.385Z,42.46
2023-05-22T08:47:58.977Z,41.43
2023-05-22T08:53:04.076Z,42.64
2023-05-22T08:58:06.322Z,41.38
2023-05-22T09:03:10.239Z,38.26
2023-05-22T09:08:19.710Z,37.75
2023-05-22T09:13:30.610Z,38.30
2023-05-22T09:18:32.495Z,38.40
2023-05-22T09:23:34.626Z,38.26
2023-05-22T09:28:37.175Z,36.38
2023-05-22T09:33:39.001Z,37.66
2023-05-22T09:38:41.413Z,35.74
2023-05-22T09:43:50.502Z,36.37
2023-05-22T09:48:53.274Z,35.50
2023-05-22T09:54:03.564Z,36.50
2023-05-22T09:59:09.449Z,35.97
2023-05-22T10:04:16.107Z,35.28
2023-05-22T10:09:21.508Z,35.96
2023-05-22T10:14:24.591Z,34.08
2023-05-22T10:19:29.104Z,33.87
2023-05-22T10:24:31.782Z,35.53
2023-05-22T10:29:44.962Z,33.24
2023-05-22T10:35:18.221Z,31.33
2023-05-22T10:40:29.161Z,30.37
2023-05-22T10:45:32.098Z,31.28
2023-05-22T10:50:35.313Z,31.62
2023-05-22T10:55:47.190Z,29.86
2023-05-22T11:00:50.672Z,30.17
2023-05-22T11:05:55.234Z,28.37
2023-05-22T11:11:00.671Z,30.09
2023-05-22T11:16:06.315Z,29.72
2023-05-22T11:21:12.262Z,29.33
2023-05-22T11:26:22.553Z,30.22
2023-05-22T11:31:24.632Z,27.60
2023-05-22T11:36:32.396Z,26.87
2023-05-22T11:41:34.431Z,30.50
2023-05-22T11:46:36.302Z,28.18
2023-05-22T11:51:40.415Z,29.73
2023-05-22T11:56:42.229Z,30.20
2023-05-22T12:01:43.986Z,29.74
2023-05-22T12:06:51.002Z,29.25
2023-05-22T12:11:56.936Z,29.37
2023-05-22T12:16:59.350Z,28.79
2023-05-22T12:22:04.395Z,28.90
2023-05-22T12:27:09.186Z,27.30
2023-05-22T12:32:12.540Z,27.95
2023-05-22T12:37:28.311Z,27.34
2023-05-22T12:42:30.312Z,28.72
2023-05-22T12:47:32.627Z,30.08
2023-05-22T12:52:35.970Z,30.48
2023-05-22T12:57:37.908Z,28.79
2023-05-22T13:02:39.901Z,28.48
2023-05-22T13:07:41.709Z,27.76
2023-05-22T13:12:44.881Z,30.46
2023-05-22T13:17:46.838Z,28.94
2023-05-22T13:22:51.265Z,27.36
2023-05-22T13:27:53.156Z,27.00
2023-05-22T13:32:55.579Z,27.23
2023-05-22T13:37:57.612Z,28.49
2023-05-22T13:42:59.524Z,25.77
2023-05-22T13:48:04.121Z,27.38
2023-05-22T13:53:06.003Z,26.79
2023-05-22T13:58:07.830Z,25.87
2023-05-22T14:03:20.395Z,26.29
2023-05-22T14:08:22.310Z,26.60
2023-05-22T14:13:24.166Z,26.92
2023-05-22T14:18:31.550Z,26.35
2023-05-22T14:23:33.348Z,25.76
2023-05-22T14:28:36.237Z,27.00
2023-05-22T14:33:40.412Z,25.54
2023-05-22T14:38:45.231Z,23.56
2023-05-22T14:43:47.762Z,25.58
2023-05-22T14:48:49.734Z,26.58
2023-05-22T14:53:51.549Z,25.88
2023-05-22T14:58:53.364Z,26.59
2023-05-22T15:03:55.166Z,28.60
2023-05-22T15:08:56.952Z,26.67
2023-05-22T15:14:01.439Z,26.92
2023-05-22T15:19:03.413Z,29.17
2023-05-22T15:24:05.537Z,28.03
2023-05-22T15:29:07.374Z,26.57
2023-05-22T15:34:18.420Z,34.67
2023-05-22T15:39:20.352Z,38.38
2023-05-22T15:44:22.162Z,33.10
2023-05-22T15:49:24.036Z,31.55
2023-05-22T15:54:25.905Z,32.32
2023-05-22T15:59:29.572Z,30.98
2023-05-22T16:04:31.478Z,32.68
2023-05-22T16:09:33.326Z,34.56
2023-05-22T16:14:35.130Z,33.44
2023-05-22T16:19:37.166Z,32.20
2023-05-22T16:24:39.159Z,34.87
2023-05-22T16:29:41.223Z,31.45
2023-05-22T16:34:43.039Z,34.26
2023-05-22T16:39:46.724Z,30.14
2023-05-22T16:44:48.490Z,30.97
2023-05-22T16:49:50.408Z,29.96
2023-05-22T16:54:53.353Z,30.13
2023-05-22T16:59:57.159Z,29.30
2023-05-22T17:04:59.685Z,30.60
2023-05-22T17:10:03.142Z,31.46
2023-05-22T17:15:08.584Z,31.36
2023-05-22T17:20:12.814Z,31.72
2023-05-22T17:25:23.175Z,29.09
2023-05-22T17:30:27.453Z,28.71
2023-05-22T17:35:29.995Z,28.29
2023-05-22T17:40:43.892Z,29.88
2023-05-22T17:45:50.018Z,33.34
2023-05-22T17:50:52.536Z,35.11
2023-05-22T17:55:54.309Z,35.72
2023-05-22T18:00:56.320Z,37.20
2023-05-22T18:05:58.641Z,37.82
2023-05-22T18:11:00.602Z,39.95
2023-05-22T18:16:03.601Z,40.83
2023-05-22T18:21:05.637Z,41.76
2023-05-22T18:26:07.431Z,42.79
2023-05-22T18:31:11.594Z,45.10
2023-05-22T18:36:13.601Z,48.50
2023-05-22T18:41:15.391Z,49.89
2023-05-22T18:46:19.100Z,50.02
2023-05-22T18:51:20.936Z,50.44
2023-05-22T18:56:22.898Z,51.45
2023-05-22T19:01:24.714Z,51.79
2023-05-22T19:06:26.572Z,51.90
2023-05-22T19:11:28.401Z,52.32
2023-05-22T19:16:30.301Z,52.24
2023-05-22T19:21:32.608Z,52.46
2023-05-22T19:26:37.269Z,52.66
2023-05-22T19:31:39.172Z,52.72
2023-05-22T19:36:40.993Z,53.00
2023-05-22T19:41:43.359Z,53.42
2023-05-22T19:46:45.211Z,54.51
2023-05-22T19:51:47.170Z,55.36
2023-05-22T19:56:48.936Z,55.60
2023-05-22T20:01:53.411Z,55.18
2023-05-22T20:06:58.681Z,56.01
2023-05-22T20:12:00.621Z,56.80
2023-05-22T20:17:03.019Z,56.51
2023-05-22T20:22:07.987Z,56.91
2023-05-22T20:27:10.955Z,56.96
2023-05-22T20:32:12.831Z,59.04
2023-05-22T20:37:14.692Z,60.63
2023-05-22T20:42:18.044Z,61.30
2023-05-22T20:47:19.839Z,61.02
2023-05-22T20:52:22.370Z,60.49
2023-05-22T20:57:25.185Z,60.06
2023-05-22T21:02:27.067Z,59.85
2023-05-22T21:07:29.137Z,60.11
2023-05-22T21:12:31.056Z,61.21
2023-05-22T21:17:32.895Z,60.62
2023-05-22T21:22:34.751Z,61.49
2023-05-22T21:27:36.610Z,62.91
2023-05-22T21:32:38.568Z,61.91
2023-05-22T21:37:40.725Z,62.74
2023-05-22T21:42:47.004Z,62.78
2023-05-22T21:47:49.272Z,63.17
2023-05-22T21:52:52.224Z,62.21
2023-05-22T21:57:55.700Z,63.87
2023-05-22T22:02:57.651Z,63.48
2023-05-22T22:07:59.553Z,65.45
2023-05-22T22:13:02.612Z,64.83
2023-05-22T22:18:05.221Z,66.48
2023-05-22T22:23:07.595Z,66.83
2023-05-22T22:28:09.521Z,66.10
2023-05-22T22:33:11.997Z,67.29
2023-05-22T22:38:13.956Z,67.71
2023-05-22T22:43:15.801Z,67.61
2023-05-22T22:48:22.374Z,67.81
2023-05-22T22:53:24.387Z,68.76
2023-05-22T22:58:26.357Z,68.66
2023-05-22T23:03:28.208Z,68.27
2023-05-22T23:08:30.122Z,69.05
2023-05-22T23:13:32.165Z,68.62
2023-05-22T23:18:34.005Z,69.16
2023-05-22T23:23:35.943Z,68.33
2023-05-22T23:28:37.756Z,68.34
2023-05-22T23:33:42.745Z,68.14
2023-05-22T23:38:46.461Z,67.88
2023-05-22T23:43:48.226Z,68.22
2023-05-22T23:48:50.099Z,69.00
2023-05-22T23:53:54.522Z,69.09
2023-05-22T23:58:56.668Z,70.50
